sensor_id;sensor_type;location;lat;lon;timestamp;P1;durP1;ratioP1;P2;durP2;ratioP2
24635;SDS011;12772;49.794;10.024;2023-12-20T00:02:32;6.13;;;5.53;;
24635;SDS011;12772;49.794;10.024;2023-12-20T00:06:35;5.95;;;5.07;;
24635;SDS011;12772;49.794;10.024;2023-12-20T00:10:37;5.70;;;5.20;;
24635;SDS011;12772;49.794;10.024;2023-12-20T00:14:39;5.85;;;4.85;;
24635;SDS011;12772;49.794;10.024;2023-12-20T00:18:41;5.70;;;5.20;;
24635;SDS011;12772;49.794;10.024;2023-12-20T00:22:43;4.93;;;4.53;;
24635;SDS011;12772;49.794;10.024;2023-12-20T00:26:45;5.38;;;4.88;;
24635;SDS011;12772;49.794;10.024;2023-12-20T00:30:47;6.30;;;4.22;;
24635;SDS011;12772;49.794;10.024;2023-12-20T00:34:49;4.97;;;4.57;;
24635;SDS011;12772;49.794;10.024;2023-12-20T00:38:51;4.10;;;3.75;;
24635;SDS011;12772;49.794;10.024;2023-12-20T00:42:53;5.07;;;4.57;;
24635;SDS011;12772;49.794;10.024;2023-12-20T00:46:55;3.03;;;2.80;;
24635;SDS011;12772;49.794;10.024;2023-12-20T00:50:57;4.45;;;3.10;;
24635;SDS011;12772;49.794;10.024;2023-12-20T00:54:59;3.00;;;2.80;;
24635;SDS011;12772;49.794;10.024;2023-12-20T00:59:01;2.58;;;2.38;;
24635;SDS011;12772;49.794;10.024;2023-12-20T01:03:03;2.53;;;2.33;;
24635;SDS011;12772;49.794;10.024;2023-12-20T01:07:05;2.08;;;1.90;;
24635;SDS011;12772;49.794;10.024;2023-12-20T01:11:07;2.65;;;1.95;;
24635;SDS011;12772;49.794;10.024;2023-12-20T01:15:09;1.80;;;1.70;;
24635;SDS011;12772;49.794;10.024;2023-12-20T01:19:12;1.73;;;1.63;;
24635;SDS011;12772;49.794;10.024;2023-12-20T01:23:15;1.50;;;1.40;;
24635;SDS011;12772;49.794;10.024;2023-12-20T01:27:17;1.58;;;1.48;;
24635;SDS011;12772;49.794;10.024;2023-12-20T01:31:19;1.20;;;1.15;;
24635;SDS011;12772;49.794;10.024;2023-12-20T01:35:21;1.48;;;1.38;;
24635;SDS011;12772;49.794;10.024;2023-12-20T01:39:23;1.45;;;1.30;;
24635;SDS011;12772;49.794;10.024;2023-12-20T01:43:25;0.70;;;0.70;;
24635;SDS011;12772;49.794;10.024;2023-12-20T01:47:27;1.00;;;1.00;;
24635;SDS011;12772;49.794;10.024;2023-12-20T01:51:29;0.60;;;0.60;;
24635;SDS011;12772;49.794;10.024;2023-12-20T01:55:33;0.60;;;0.60;;
24635;SDS011;12772;49.794;10.024;2023-12-20T01:59:39;0.70;;;0.70;;
24635;SDS011;12772;49.794;10.024;2023-12-20T02:03:42;0.70;;;0.70;;
24635;SDS011;12772;49.794;10.024;2023-12-20T02:07:44;0.77;;;0.77;;
24635;SDS011;12772;49.794;10.024;2023-12-20T02:11:46;0.55;;;0.55;;
24635;SDS011;12772;49.794;10.024;2023-12-20T02:15:48;0.70;;;0.70;;
24635;SDS011;12772;49.794;10.024;2023-12-20T02:19:50;0.70;;;0.70;;
24635;SDS011;12772;49.794;10.024;2023-12-20T02:23:52;0.60;;;0.60;;
24635;SDS011;12772;49.794;10.024;2023-12-20T02:27:54;0.55;;;0.50;;
24635;SDS011;12772;49.794;10.024;2023-12-20T02:31:56;0.63;;;0.63;;
24635;SDS011;12772;49.794;10.024;2023-12-20T02:35:58;0.70;;;0.70;;
24635;SDS011;12772;49.794;10.024;2023-12-20T02:40:00;0.73;;;0.73;;
24635;SDS011;12772;49.794;10.024;2023-12-20T02:44:03;0.70;;;0.60;;
24635;SDS011;12772;49.794;10.024;2023-12-20T02:48:05;0.70;;;0.70;;
24635;SDS011;12772;49.794;10.024;2023-12-20T02:52:07;0.95;;;0.60;;
24635;SDS011;12772;49.794;10.024;2023-12-20T02:56:09;0.70;;;0.70;;
24635;SDS011;12772;49.794;10.024;2023-12-20T03:00:11;0.60;;;0.60;;
24635;SDS011;12772;49.794;10.024;2023-12-20T03:04:14;1.25;;;0.65;;
24635;SDS011;12772;49.794;10.024;2023-12-20T03:08:16;0.82;;;0.82;;
24635;SDS011;12772;49.794;10.024;2023-12-20T03:12:18;0.80;;;0.80;;
24635;SDS011;12772;49.794;10.024;2023-12-20T03:16:20;0.68;;;0.68;;
24635;SDS011;12772;49.794;10.024;2023-12-20T03:20:22;0.93;;;0.68;;
24635;SDS011;12772;49.794;10.024;2023-12-20T03:24:24;0.60;;;0.60;;
24635;SDS011;12772;49.794;10.024;2023-12-20T03:28:26;0.70;;;0.70;;
24635;SDS011;12772;49.794;10.024;2023-12-20T03:32:29;0.68;;;0.68;;
24635;SDS011;12772;49.794;10.024;2023-12-20T03:36:30;0.60;;;0.60;;
24635;SDS011;12772;49.794;10.024;2023-12-20T03:40:32;0.95;;;0.95;;
24635;SDS011;12772;49.794;10.024;2023-12-20T03:44:38;0.60;;;0.60;;
24635;SDS011;12772;49.794;10.024;2023-12-20T03:48:40;0.70;;;0.70;;
24635;SDS011;12772;49.794;10.024;2023-12-20T03:52:42;0.80;;;0.80;;
24635;SDS011;12772;49.794;10.024;2023-12-20T03:56:44;0.70;;;0.70;;
24635;SDS011;12772;49.794;10.024;2023-12-20T04:00:46;0.57;;;0.57;;
24635;SDS011;12772;49.794;10.024;2023-12-20T04:04:48;0.50;;;0.50;;
24635;SDS011;12772;49.794;10.024;2023-12-20T04:08:50;0.50;;;0.50;;
24635;SDS011;12772;49.794;10.024;2023-12-20T04:12:53;0.60;;;0.60;;
24635;SDS011;12772;49.794;10.024;2023-12-20T04:16:55;0.90;;;0.90;;
24635;SDS011;12772;49.794;10.024;2023-12-20T04:20:57;0.90;;;0.90;;
24635;SDS011;12772;49.794;10.024;2023-12-20T04:24:59;0.95;;;0.95;;
24635;SDS011;12772;49.794;10.024;2023-12-20T04:29:02;2.05;;;1.15;;
24635;SDS011;12772;49.794;10.024;2023-12-20T04:33:04;0.70;;;0.70;;
24635;SDS011;12772;49.794;10.024;2023-12-20T04:37:06;1.48;;;1.08;;
24635;SDS011;12772;49.794;10.024;2023-12-20T04:41:08;1.88;;;1.30;;
24635;SDS011;12772;49.794;10.024;2023-12-20T04:45:10;1.75;;;1.65;;
24635;SDS011;12772;49.794;10.024;2023-12-20T04:49:13;1.35;;;1.30;;
24635;SDS011;12772;49.794;10.024;2023-12-20T04:53:15;1.05;;;1.00;;
24635;SDS011;12772;49.794;10.024;2023-12-20T04:57:17;0.80;;;0.80;;
24635;SDS011;12772;49.794;10.024;2023-12-20T05:01:19;0.80;;;0.80;;
24635;SDS011;12772;49.794;10.024;2023-12-20T05:05:21;1.27;;;1.27;;
24635;SDS011;12772;49.794;10.024;2023-12-20T05:09:24;1.13;;;1.00;;
24635;SDS011;12772;49.794;10.024;2023-12-20T05:13:25;1.08;;;1.08;;
24635;SDS011;12772;49.794;10.024;2023-12-20T05:17:27;0.93;;;0.93;;
24635;SDS011;12772;49.794;10.024;2023-12-20T05:21:29;1.00;;;1.00;;
24635;SDS011;12772;49.794;10.024;2023-12-20T05:25:32;1.00;;;1.00;;
24635;SDS011;12772;49.794;10.024;2023-12-20T05:29:34;0.90;;;0.90;;
24635;SDS011;12772;49.794;10.024;2023-12-20T05:33:36;1.35;;;1.25;;
24635;SDS011;12772;49.794;10.024;2023-12-20T05:37:38;1.80;;;1.70;;
24635;SDS011;12772;49.794;10.024;2023-12-20T05:41:40;1.55;;;1.45;;
24635;SDS011;12772;49.794;10.024;2023-12-20T05:45:42;1.77;;;1.67;;
24635;SDS011;12772;49.794;10.024;2023-12-20T05:49:44;1.85;;;1.75;;
24635;SDS011;12772;49.794;10.024;2023-12-20T05:53:46;1.92;;;1.70;;
24635;SDS011;12772;49.794;10.024;2023-12-20T05:57:50;1.35;;;1.33;;
24635;SDS011;12772;49.794;10.024;2023-12-20T06:01:52;1.83;;;1.67;;
24635;SDS011;12772;49.794;10.024;2023-12-20T06:05:54;1.67;;;1.58;;
24635;SDS011;12772;49.794;10.024;2023-12-20T06:09:56;3.15;;;1.40;;
24635;SDS011;12772;49.794;10.024;2023-12-20T06:13:58;1.35;;;1.30;;
24635;SDS011;12772;49.794;10.024;2023-12-20T06:18:00;1.20;;;1.10;;
24635;SDS011;12772;49.794;10.024;2023-12-20T06:22:02;1.02;;;1.02;;
24635;SDS011;12772;49.794;10.024;2023-12-20T06:26:04;2.20;;;1.33;;
24635;SDS011;12772;49.794;10.024;2023-12-20T06:30:07;1.10;;;1.10;;
24635;SDS011;12772;49.794;10.024;2023-12-20T06:34:10;1.35;;;1.30;;
24635;SDS011;12772;49.794;10.024;2023-12-20T06:38:11;1.10;;;1.10;;
24635;SDS011;12772;49.794;10.024;2023-12-20T06:42:13;1.15;;;1.15;;
24635;SDS011;12772;49.794;10.024;2023-12-20T06:46:15;1.20;;;1.20;;
24635;SDS011;12772;49.794;10.024;2023-12-20T06:50:17;1.95;;;1.77;;
24635;SDS011;12772;49.794;10.024;2023-12-20T06:54:19;1.60;;;1.50;;
24635;SDS011;12772;49.794;10.024;2023-12-20T06:58:22;2.28;;;1.60;;
24635;SDS011;12772;49.794;10.024;2023-12-20T07:02:24;1.90;;;1.80;;
24635;SDS011;12772;49.794;10.024;2023-12-20T07:06:26;1.98;;;1.88;;
24635;SDS011;12772;49.794;10.024;2023-12-20T07:10:28;2.20;;;2.00;;
24635;SDS011;12772;49.794;10.024;2023-12-20T07:14:30;2.25;;;2.05;;
24635;SDS011;12772;49.794;10.024;2023-12-20T07:18:32;2.60;;;2.40;;
24635;SDS011;12772;49.794;10.024;2023-12-20T07:22:34;2.13;;;2.00;;
24635;SDS011;12772;49.794;10.024;2023-12-20T07:26:36;1.98;;;1.88;;
24635;SDS011;12772;49.794;10.024;2023-12-20T07:30:39;2.40;;;2.30;;
24635;SDS011;12772;49.794;10.024;2023-12-20T07:34:41;1.98;;;1.88;;
24635;SDS011;12772;49.794;10.024;2023-12-20T07:38:44;2.80;;;2.60;;
24635;SDS011;12772;49.794;10.024;2023-12-20T07:42:46;2.72;;;2.45;;
24635;SDS011;12772;49.794;10.024;2023-12-20T07:46:48;3.03;;;2.42;;
24635;SDS011;12772;49.794;10.024;2023-12-20T07:50:50;2.10;;;2.00;;
24635;SDS011;12772;49.794;10.024;2023-12-20T07:54:53;2.40;;;2.10;;
24635;SDS011;12772;49.794;10.024;2023-12-20T07:58:55;2.97;;;2.10;;
24635;SDS011;12772;49.794;10.024;2023-12-20T08:02:57;3.70;;;1.92;;
24635;SDS011;12772;49.794;10.024;2023-12-20T08:06:59;3.22;;;1.85;;
24635;SDS011;12772;49.794;10.024;2023-12-20T08:11:01;2.25;;;2.00;;
24635;SDS011;12772;49.794;10.024;2023-12-20T08:15:03;4.20;;;2.50;;
24635;SDS011;12772;49.794;10.024;2023-12-20T08:19:06;3.38;;;2.53;;
24635;SDS011;12772;49.794;10.024;2023-12-20T08:23:08;5.20;;;3.30;;
24635;SDS011;12772;49.794;10.024;2023-12-20T08:27:10;2.90;;;2.60;;
24635;SDS011;12772;49.794;10.024;2023-12-20T08:31:18;3.25;;;2.22;;
24635;SDS011;12772;49.794;10.024;2023-12-20T08:35:21;4.80;;;2.13;;
24635;SDS011;12772;49.794;10.024;2023-12-20T08:39:24;2.38;;;1.80;;
24635;SDS011;12772;49.794;10.024;2023-12-20T08:43:26;6.93;;;1.83;;
24635;SDS011;12772;49.794;10.024;2023-12-20T08:47:28;2.30;;;1.67;;
24635;SDS011;12772;49.794;10.024;2023-12-20T08:51:30;5.18;;;2.45;;
24635;SDS011;12772;49.794;10.024;2023-12-20T08:55:32;2.53;;;1.60;;
24635;SDS011;12772;49.794;10.024;2023-12-20T08:59:34;3.67;;;1.95;;
24635;SDS011;12772;49.794;10.024;2023-12-20T09:03:36;2.47;;;1.55;;
24635;SDS011;12772;49.794;10.024;2023-12-20T09:07:38;5.85;;;2.28;;
24635;SDS011;12772;49.794;10.024;2023-12-20T09:11:40;2.05;;;1.48;;
24635;SDS011;12772;49.794;10.024;2023-12-20T09:15:42;6.13;;;1.70;;
24635;SDS011;12772;49.794;10.024;2023-12-20T09:19:44;2.55;;;1.75;;
24635;SDS011;12772;49.794;10.024;2023-12-20T09:23:46;4.63;;;1.35;;
24635;SDS011;12772;49.794;10.024;2023-12-20T09:27:50;3.00;;;1.55;;
24635;SDS011;12772;49.794;10.024;2023-12-20T09:31:53;4.97;;;1.83;;
24635;SDS011;12772;49.794;10.024;2023-12-20T09:35:54;2.92;;;1.67;;
24635;SDS011;12772;49.794;10.024;2023-12-20T09:39:57;4.57;;;1.80;;
24635;SDS011;12772;49.794;10.024;2023-12-20T09:43:59;5.30;;;1.70;;
24635;SDS011;12772;49.794;10.024;2023-12-20T09:48:04;5.10;;;1.63;;
24635;SDS011;12772;49.794;10.024;2023-12-20T09:52:06;5.55;;;1.65;;
24635;SDS011;12772;49.794;10.024;2023-12-20T09:56:10;3.35;;;1.67;;
24635;SDS011;12772;49.794;10.024;2023-12-20T10:00:13;3.90;;;1.88;;
24635;SDS011;12772;49.794;10.024;2023-12-20T10:04:17;4.13;;;2.00;;
24635;SDS011;12772;49.794;10.024;2023-12-20T10:08:20;3.05;;;1.50;;
24635;SDS011;12772;49.794;10.024;2023-12-20T10:12:23;4.85;;;1.88;;
24635;SDS011;12772;49.794;10.024;2023-12-20T10:16:25;4.63;;;1.60;;
24635;SDS011;12772;49.794;10.024;2023-12-20T10:20:27;2.97;;;2.00;;
24635;SDS011;12772;49.794;10.024;2023-12-20T10:24:30;4.38;;;1.80;;
24635;SDS011;12772;49.794;10.024;2023-12-20T10:28:33;3.45;;;1.63;;
24635;SDS011;12772;49.794;10.024;2023-12-20T10:32:35;5.00;;;2.30;;
24635;SDS011;12772;49.794;10.024;2023-12-20T10:36:37;2.03;;;1.60;;
24635;SDS011;12772;49.794;10.024;2023-12-20T10:40:39;3.28;;;1.90;;
24635;SDS011;12772;49.794;10.024;2023-12-20T10:44:42;3.92;;;1.67;;
24635;SDS011;12772;49.794;10.024;2023-12-20T10:48:44;4.28;;;2.20;;
24635;SDS011;12772;49.794;10.024;2023-12-20T10:52:48;3.72;;;1.67;;
24635;SDS011;12772;49.794;10.024;2023-12-20T10:56:55;5.05;;;1.70;;
24635;SDS011;12772;49.794;10.024;2023-12-20T11:01:00;4.60;;;1.60;;
24635;SDS011;12772;49.794;10.024;2023-12-20T11:05:20;6.35;;;2.00;;
24635;SDS011;12772;49.794;10.024;2023-12-20T11:09:35;3.55;;;1.88;;
24635;SDS011;12772;49.794;10.024;2023-12-20T11:13:44;4.18;;;1.90;;
24635;SDS011;12772;49.794;10.024;2023-12-20T11:17:56;8.60;;;2.03;;
24635;SDS011;12772;49.794;10.024;2023-12-20T11:21:58;6.78;;;2.30;;
24635;SDS011;12772;49.794;10.024;2023-12-20T11:26:00;3.22;;;2.08;;
24635;SDS011;12772;49.794;10.024;2023-12-20T11:30:04;20.08;;;2.40;;
24635;SDS011;12772;49.794;10.024;2023-12-20T11:34:13;7.00;;;2.10;;
24635;SDS011;12772;49.794;10.024;2023-12-20T11:38:15;7.13;;;2.30;;
24635;SDS011;12772;49.794;10.024;2023-12-20T11:42:17;2.72;;;1.77;;
24635;SDS011;12772;49.794;10.024;2023-12-20T11:46:21;3.75;;;1.98;;
24635;SDS011;12772;49.794;10.024;2023-12-20T11:50:24;5.07;;;1.75;;
24635;SDS011;12772;49.794;10.024;2023-12-20T11:54:26;7.45;;;2.88;;
24635;SDS011;12772;49.794;10.024;2023-12-20T11:58:28;2.92;;;1.80;;
24635;SDS011;12772;49.794;10.024;2023-12-20T12:02:31;2.55;;;1.58;;
24635;SDS011;12772;49.794;10.024;2023-12-20T12:06:33;5.40;;;2.03;;
24635;SDS011;12772;49.794;10.024;2023-12-20T12:10:35;3.42;;;1.50;;
24635;SDS011;12772;49.794;10.024;2023-12-20T12:14:38;6.78;;;2.45;;
24635;SDS011;12772;49.794;10.024;2023-12-20T12:18:40;4.65;;;2.55;;
24635;SDS011;12772;49.794;10.024;2023-12-20T12:22:42;4.45;;;2.03;;
24635;SDS011;12772;49.794;10.024;2023-12-20T12:26:49;3.53;;;1.73;;
24635;SDS011;12772;49.794;10.024;2023-12-20T12:30:59;4.15;;;2.03;;
24635;SDS011;12772;49.794;10.024;2023-12-20T12:35:04;5.55;;;1.70;;
24635;SDS011;12772;49.794;10.024;2023-12-20T12:39:06;2.45;;;1.60;;
24635;SDS011;12772;49.794;10.024;2023-12-20T12:43:08;3.53;;;1.95;;
24635;SDS011;12772;49.794;10.024;2023-12-20T12:47:10;3.15;;;1.92;;
24635;SDS011;12772;49.794;10.024;2023-12-20T12:51:13;3.35;;;1.83;;
24635;SDS011;12772;49.794;10.024;2023-12-20T12:55:14;4.53;;;1.90;;
24635;SDS011;12772;49.794;10.024;2023-12-20T12:59:16;3.08;;;1.77;;
24635;SDS011;12772;49.794;10.024;2023-12-20T13:03:18;4.97;;;1.90;;
24635;SDS011;12772;49.794;10.024;2023-12-20T13:07:20;5.65;;;2.03;;
24635;SDS011;12772;49.794;10.024;2023-12-20T13:11:22;3.17;;;1.65;;
24635;SDS011;12772;49.794;10.024;2023-12-20T13:15:25;8.43;;;2.05;;
24635;SDS011;12772;49.794;10.024;2023-12-20T13:19:27;5.13;;;1.70;;
24635;SDS011;12772;49.794;10.024;2023-12-20T13:23:30;6.82;;;2.08;;
24635;SDS011;12772;49.794;10.024;2023-12-20T13:27:32;3.08;;;1.83;;
24635;SDS011;12772;49.794;10.024;2023-12-20T13:31:34;7.13;;;2.05;;
24635;SDS011;12772;49.794;10.024;2023-12-20T13:35:37;5.13;;;1.80;;
24635;SDS011;12772;49.794;10.024;2023-12-20T13:39:39;4.88;;;1.80;;
24635;SDS011;12772;49.794;10.024;2023-12-20T13:43:41;2.80;;;1.63;;
24635;SDS011;12772;49.794;10.024;2023-12-20T13:47:44;6.55;;;2.65;;
24635;SDS011;12772;49.794;10.024;2023-12-20T13:51:46;4.07;;;1.92;;
24635;SDS011;12772;49.794;10.024;2023-12-20T13:55:48;4.60;;;1.98;;
24635;SDS011;12772;49.794;10.024;2023-12-20T13:59:50;3.83;;;1.92;;
24635;SDS011;12772;49.794;10.024;2023-12-20T14:03:52;4.35;;;1.92;;
24635;SDS011;12772;49.794;10.024;2023-12-20T14:07:54;3.65;;;1.83;;
24635;SDS011;12772;49.794;10.024;2023-12-20T14:11:58;4.50;;;1.90;;
24635;SDS011;12772;49.794;10.024;2023-12-20T14:16:00;5.55;;;2.00;;
24635;SDS011;12772;49.794;10.024;2023-12-20T14:20:02;6.82;;;2.08;;
24635;SDS011;12772;49.794;10.024;2023-12-20T14:24:05;3.28;;;1.60;;
24635;SDS011;12772;49.794;10.024;2023-12-20T14:28:07;3.00;;;2.08;;
24635;SDS011;12772;49.794;10.024;2023-12-20T14:32:10;6.22;;;1.90;;
24635;SDS011;12772;49.794;10.024;2023-12-20T14:36:14;2.45;;;1.80;;
24635;SDS011;12772;49.794;10.024;2023-12-20T14:40:18;4.45;;;2.10;;
24635;SDS011;12772;49.794;10.024;2023-12-20T14:44:20;4.72;;;1.90;;
24635;SDS011;12772;49.794;10.024;2023-12-20T14:48:23;3.50;;;1.73;;
24635;SDS011;12772;49.794;10.024;2023-12-20T14:52:25;4.18;;;1.65;;
24635;SDS011;12772;49.794;10.024;2023-12-20T14:56:27;4.28;;;2.13;;
24635;SDS011;12772;49.794;10.024;2023-12-20T15:00:29;3.53;;;1.95;;
24635;SDS011;12772;49.794;10.024;2023-12-20T15:04:31;5.25;;;2.47;;
24635;SDS011;12772;49.794;10.024;2023-12-20T15:08:33;3.72;;;1.85;;
24635;SDS011;12772;49.794;10.024;2023-12-20T15:12:36;5.07;;;2.03;;
24635;SDS011;12772;49.794;10.024;2023-12-20T15:16:38;5.45;;;1.77;;
24635;SDS011;12772;49.794;10.024;2023-12-20T15:20:40;2.88;;;2.00;;
24635;SDS011;12772;49.794;10.024;2023-12-20T15:24:44;4.85;;;1.95;;
24635;SDS011;12772;49.794;10.024;2023-12-20T15:28:47;3.67;;;1.95;;
24635;SDS011;12772;49.794;10.024;2023-12-20T15:32:49;6.25;;;2.15;;
24635;SDS011;12772;49.794;10.024;2023-12-20T15:36:51;5.28;;;2.38;;
24635;SDS011;12772;49.794;10.024;2023-12-20T15:40:53;7.35;;;2.72;;
24635;SDS011;12772;49.794;10.024;2023-12-20T15:44:55;7.55;;;3.50;;
24635;SDS011;12772;49.794;10.024;2023-12-20T15:48:57;4.72;;;2.83;;
24635;SDS011;12772;49.794;10.024;2023-12-20T15:52:59;7.40;;;2.78;;
24635;SDS011;12772;49.794;10.024;2023-12-20T15:57:01;3.33;;;2.08;;
24635;SDS011;12772;49.794;10.024;2023-12-20T16:01:03;4.65;;;2.53;;
24635;SDS011;12772;49.794;10.024;2023-12-20T16:05:05;5.68;;;2.35;;
24635;SDS011;12772;49.794;10.024;2023-12-20T16:09:08;4.82;;;2.15;;
24635;SDS011;12772;49.794;10.024;2023-12-20T16:13:10;4.72;;;2.25;;
24635;SDS011;12772;49.794;10.024;2023-12-20T16:17:12;5.15;;;2.30;;
24635;SDS011;12772;49.794;10.024;2023-12-20T16:21:14;2.67;;;1.90;;
24635;SDS011;12772;49.794;10.024;2023-12-20T16:25:16;4.53;;;2.17;;
24635;SDS011;12772;49.794;10.024;2023-12-20T16:29:18;5.90;;;2.10;;
24635;SDS011;12772;49.794;10.024;2023-12-20T16:33:20;3.97;;;2.53;;
24635;SDS011;12772;49.794;10.024;2023-12-20T16:37:22;4.05;;;2.08;;
24635;SDS011;12772;49.794;10.024;2023-12-20T16:41:24;5.38;;;2.38;;
24635;SDS011;12772;49.794;10.024;2023-12-20T16:45:26;6.28;;;2.50;;
24635;SDS011;12772;49.794;10.024;2023-12-20T16:49:28;7.43;;;2.30;;
24635;SDS011;12772;49.794;10.024;2023-12-20T16:53:30;8.38;;;2.15;;
24635;SDS011;12772;49.794;10.024;2023-12-20T16:57:32;3.30;;;2.28;;
24635;SDS011;12772;49.794;10.024;2023-12-20T17:01:34;4.40;;;3.08;;
24635;SDS011;12772;49.794;10.024;2023-12-20T17:05:36;5.45;;;3.97;;
24635;SDS011;12772;49.794;10.024;2023-12-20T17:09:38;8.05;;;5.03;;
24635;SDS011;12772;49.794;10.024;2023-12-20T17:13:40;3.83;;;2.85;;
24635;SDS011;12772;49.794;10.024;2023-12-20T17:17:42;5.70;;;2.20;;
24635;SDS011;12772;49.794;10.024;2023-12-20T17:21:44;3.35;;;2.17;;
24635;SDS011;12772;49.794;10.024;2023-12-20T17:25:52;2.42;;;2.10;;
24635;SDS011;12772;49.794;10.024;2023-12-20T17:29:54;2.63;;;2.15;;
24635;SDS011;12772;49.794;10.024;2023-12-20T17:33:57;5.05;;;2.40;;
24635;SDS011;12772;49.794;10.024;2023-12-20T17:37:59;4.50;;;2.55;;
24635;SDS011;12772;49.794;10.024;2023-12-20T17:42:01;6.60;;;2.78;;
24635;SDS011;12772;49.794;10.024;2023-12-20T17:46:03;2.92;;;1.75;;
24635;SDS011;12772;49.794;10.024;2023-12-20T17:50:05;7.53;;;2.08;;
24635;SDS011;12772;49.794;10.024;2023-12-20T17:54:07;3.65;;;2.00;;
24635;SDS011;12772;49.794;10.024;2023-12-20T17:58:09;4.60;;;2.00;;
24635;SDS011;12772;49.794;10.024;2023-12-20T18:02:11;4.35;;;2.38;;
24635;SDS011;12772;49.794;10.024;2023-12-20T18:06:14;4.63;;;2.30;;
24635;SDS011;12772;49.794;10.024;2023-12-20T18:10:16;2.30;;;2.10;;
24635;SDS011;12772;49.794;10.024;2023-12-20T18:14:18;3.05;;;2.13;;
24635;SDS011;12772;49.794;10.024;2023-12-20T18:18:21;4.50;;;2.53;;
24635;SDS011;12772;49.794;10.024;2023-12-20T18:22:23;4.25;;;2.20;;
24635;SDS011;12772;49.794;10.024;2023-12-20T18:26:24;2.85;;;2.15;;
24635;SDS011;12772;49.794;10.024;2023-12-20T18:30:26;3.30;;;2.20;;
24635;SDS011;12772;49.794;10.024;2023-12-20T18:34:28;5.85;;;3.50;;
24635;SDS011;12772;49.794;10.024;2023-12-20T18:38:34;4.05;;;1.90;;
24635;SDS011;12772;49.794;10.024;2023-12-20T18:42:36;6.22;;;3.33;;
24635;SDS011;12772;49.794;10.024;2023-12-20T18:46:38;5.50;;;2.60;;
24635;SDS011;12772;49.794;10.024;2023-12-20T18:50:40;2.80;;;2.08;;
24635;SDS011;12772;49.794;10.024;2023-12-20T18:54:42;6.45;;;2.72;;
24635;SDS011;12772;49.794;10.024;2023-12-20T18:58:44;3.08;;;2.22;;
24635;SDS011;12772;49.794;10.024;2023-12-20T19:02:46;3.15;;;2.20;;
24635;SDS011;12772;49.794;10.024;2023-12-20T19:06:49;5.05;;;2.75;;
24635;SDS011;12772;49.794;10.024;2023-12-20T19:10:57;6.53;;;2.20;;
24635;SDS011;12772;49.794;10.024;2023-12-20T19:14:59;3.83;;;2.05;;
24635;SDS011;12772;49.794;10.024;2023-12-20T19:19:00;4.65;;;2.85;;
24635;SDS011;12772;49.794;10.024;2023-12-20T19:23:02;6.32;;;2.65;;
24635;SDS011;12772;49.794;10.024;2023-12-20T19:27:05;4.32;;;2.60;;
24635;SDS011;12772;49.794;10.024;2023-12-20T19:31:07;7.97;;;2.42;;
24635;SDS011;12772;49.794;10.024;2023-12-20T19:35:11;7.43;;;4.75;;
24635;SDS011;12772;49.794;10.024;2023-12-20T19:39:14;4.00;;;3.08;;
24635;SDS011;12772;49.794;10.024;2023-12-20T19:43:16;4.03;;;2.60;;
24635;SDS011;12772;49.794;10.024;2023-12-20T19:47:18;4.43;;;2.30;;
24635;SDS011;12772;49.794;10.024;2023-12-20T19:51:20;4.13;;;2.40;;
24635;SDS011;12772;49.794;10.024;2023-12-20T19:55:23;4.35;;;2.60;;
24635;SDS011;12772;49.794;10.024;2023-12-20T19:59:25;5.03;;;2.50;;
24635;SDS011;12772;49.794;10.024;2023-12-20T20:03:27;2.53;;;2.28;;
24635;SDS011;12772;49.794;10.024;2023-12-20T20:07:29;5.03;;;2.30;;
24635;SDS011;12772;49.794;10.024;2023-12-20T20:11:31;2.58;;;2.10;;
24635;SDS011;12772;49.794;10.024;2023-12-20T20:15:33;4.40;;;2.53;;
24635;SDS011;12772;49.794;10.024;2023-12-20T20:19:35;5.40;;;2.55;;
24635;SDS011;12772;49.794;10.024;2023-12-20T20:23:37;4.28;;;2.47;;
24635;SDS011;12772;49.794;10.024;2023-12-20T20:27:39;2.78;;;2.40;;
24635;SDS011;12772;49.794;10.024;2023-12-20T20:31:41;3.00;;;2.58;;
24635;SDS011;12772;49.794;10.024;2023-12-20T20:35:43;2.15;;;2.00;;
24635;SDS011;12772;49.794;10.024;2023-12-20T20:39:45;2.28;;;2.00;;
24635;SDS011;12772;49.794;10.024;2023-12-20T20:43:47;2.60;;;2.10;;
24635;SDS011;12772;49.794;10.024;2023-12-20T20:47:49;4.07;;;2.42;;
24635;SDS011;12772;49.794;10.024;2023-12-20T20:51:51;2.67;;;2.05;;
24635;SDS011;12772;49.794;10.024;2023-12-20T20:55:53;3.97;;;2.70;;
24635;SDS011;12772;49.794;10.024;2023-12-20T20:59:55;3.83;;;2.30;;
24635;SDS011;12772;49.794;10.024;2023-12-20T21:04:00;3.40;;;2.38;;
24635;SDS011;12772;49.794;10.024;2023-12-20T21:08:02;2.60;;;2.40;;
24635;SDS011;12772;49.794;10.024;2023-12-20T21:12:05;5.47;;;3.17;;
24635;SDS011;12772;49.794;10.024;2023-12-20T21:16:07;3.17;;;2.50;;
24635;SDS011;12772;49.794;10.024;2023-12-20T21:20:11;5.00;;;2.95;;
24635;SDS011;12772;49.794;10.024;2023-12-20T21:24:14;3.95;;;2.95;;
24635;SDS011;12772;49.794;10.024;2023-12-20T21:28:16;6.35;;;3.00;;
24635;SDS011;12772;49.794;10.024;2023-12-20T21:32:18;5.07;;;2.75;;
24635;SDS011;12772;49.794;10.024;2023-12-20T21:36:22;2.90;;;2.03;;
24635;SDS011;12772;49.794;10.024;2023-12-20T21:40:24;3.88;;;2.92;;
24635;SDS011;12772;49.794;10.024;2023-12-20T21:44:27;6.13;;;2.92;;
24635;SDS011;12772;49.794;10.024;2023-12-20T21:48:28;4.13;;;2.63;;
24635;SDS011;12772;49.794;10.024;2023-12-20T21:52:30;4.05;;;2.60;;
24635;SDS011;12772;49.794;10.024;2023-12-20T21:56:32;3.42;;;2.75;;
24635;SDS011;12772;49.794;10.024;2023-12-20T22:00:37;8.50;;;3.03;;
24635;SDS011;12772;49.794;10.024;2023-12-20T22:04:39;4.07;;;3.05;;
24635;SDS011;12772;49.794;10.024;2023-12-20T22:08:41;5.68;;;2.70;;
24635;SDS011;12772;49.794;10.024;2023-12-20T22:12:43;6.57;;;3.17;;
24635;SDS011;12772;49.794;10.024;2023-12-20T22:16:45;4.32;;;2.97;;
24635;SDS011;12772;49.794;10.024;2023-12-20T22:20:47;8.57;;;3.42;;
24635;SDS011;12772;49.794;10.024;2023-12-20T22:24:49;3.88;;;3.20;;
24635;SDS011;12772;49.794;10.024;2023-12-20T22:28:51;3.22;;;2.70;;
24635;SDS011;12772;49.794;10.024;2023-12-20T22:32:53;3.53;;;2.78;;
24635;SDS011;12772;49.794;10.024;2023-12-20T22:36:55;4.05;;;2.78;;
24635;SDS011;12772;49.794;10.024;2023-12-20T22:40:57;3.47;;;2.70;;
24635;SDS011;12772;49.794;10.024;2023-12-20T22:44:59;3.85;;;3.20;;
24635;SDS011;12772;49.794;10.024;2023-12-20T22:49:01;2.35;;;1.90;;
24635;SDS011;12772;49.794;10.024;2023-12-20T22:53:03;3.75;;;2.10;;
24635;SDS011;12772;49.794;10.024;2023-12-20T22:57:05;1.92;;;1.73;;
24635;SDS011;12772;49.794;10.024;2023-12-20T23:01:07;2.58;;;1.55;;
24635;SDS011;12772;49.794;10.024;2023-12-20T23:05:09;2.95;;;1.70;;
24635;SDS011;12772;49.794;10.024;2023-12-20T23:09:11;2.83;;;1.83;;
24635;SDS011;12772;49.794;10.024;2023-12-20T23:13:13;2.17;;;1.70;;
24635;SDS011;12772;49.794;10.024;2023-12-20T23:17:16;2.63;;;1.65;;
24635;SDS011;12772;49.794;10.024;2023-12-20T23:21:19;1.50;;;1.40;;
24635;SDS011;12772;49.794;10.024;2023-12-20T23:25:21;2.47;;;1.58;;
24635;SDS011;12772;49.794;10.024;2023-12-20T23:29:23;2.13;;;1.67;;
24635;SDS011;12772;49.794;10.024;2023-12-20T23:33:25;1.70;;;1.60;;
24635;SDS011;12772;49.794;10.024;2023-12-20T23:37:27;1.40;;;1.30;;
24635;SDS011;12772;49.794;10.024;2023-12-20T23:41:29;1.65;;;1.55;;
24635;SDS011;12772;49.794;10.024;2023-12-20T23:45:31;1.25;;;1.20;;
24635;SDS011;12772;49.794;10.024;2023-12-20T23:49:33;1.38;;;1.27;;
24635;SDS011;12772;49.794;10.024;2023-12-20T23:53:35;1.20;;;1.10;;
24635;SDS011;12772;49.794;10.024;2023-12-20T23:57:38;3.90;;;1.92;;
